Time;durP1;ratioP1;P1;durP2;ratioP2;P2;SDS_P1;SDS_P2;PMS_P1;PMS_P2;Temp;Humidity;BMP_temperature;BMP_pressure;BME280_temperature;BME280_humidity;BME280_pressure;Samples;Min_cycle;Max_cycle;Signal;HPM_P1;HPM_P2
2021/04/06 00:00:06;;;;;;;;;;;1.30;99.90;;;;;;5115358;28;19941;-68
2021/04/06 00:03:02;;;;;;;;;;;1.30;99.90;;;;;;5103780;28;20330;-68
2021/04/06 00:05:29;;;;;;;;;;;1.30;99.90;;;;;;5117815;27;19919;-68
2021/04/06 00:08:20;;;;;;;;;;;1.30;99.90;;;;;;5137760;27;20010;-68
2021/04/06 00:10:51;;;;;;;;;;;1.30;99.90;;;;;;5107407;28;19923;-67
2021/04/06 00:20:04;;;;;;;;;;;1.50;99.90;;;;;;5118536;27;20275;-67
2021/04/06 00:22:31;;;;;;;;;;;1.60;99.90;;;;;;5094808;28;19923;-67
2021/04/06 00:25:01;;;;;;;;;;;1.70;99.90;;;;;;5097970;28;19965;-67
2021/04/06 00:27:37;;;;;;;;;;;1.80;99.90;;;;;;5132215;27;19926;-67
2021/04/06 00:30:10;;;;;;;;;;;1.80;99.90;;;;;;5116455;27;19919;-67
2021/04/06 00:32:43;;;;;;;;;;;1.80;99.90;;;;;;5116387;28;19919;-67
2021/04/06 00:35:25;;;;;;;;;;;1.90;99.90;;;;;;5118241;27;19919;-68
2021/04/06 00:38:12;;;;;;;;;;;1.90;99.90;;;;;;5118383;27;19934;-67
2021/04/06 00:47:33;;;;;;;;;;;2.10;99.90;;;;;;5121747;27;20020;-67
2021/04/06 00:50:08;;;;;;;;;;;2.00;99.90;;;;;;5115703;28;19926;-68
2021/04/06 00:52:44;;;;;;;;;;;1.90;99.90;;;;;;5128536;27;19943;-68
2021/04/06 00:55:47;;;;;;;;;;;1.80;99.90;;;;;;5130595;27;19930;-68
2021/04/06 01:11:47;;;;;;;;;;;1.70;99.90;;;;;;5032401;28;20407;-68
2021/04/06 01:14:39;;;;;;;;;;;1.70;99.90;;;;;;5032696;28;19924;-68
2021/04/06 01:17:27;;;;;;;;;;;1.80;99.90;;;;;;5015058;28;19922;-68
2021/04/06 01:20:17;;;;;;;;;;;1.80;99.90;;;;;;5066942;28;19919;-69
2021/04/06 01:26:27;;;;;;;;;;;1.90;99.90;;;;;;5095539;28;19915;-68
2021/04/06 01:29:21;;;;;;;;;;;2.00;99.90;;;;;;5111947;28;19920;-68
2021/04/06 01:31:48;;;;;;;;;;;2.00;99.90;;;;;;5104442;28;20259;-68
2021/04/06 01:34:19;;;;;;;;;;;2.10;99.90;;;;;;5113705;28;19942;-68
2021/04/06 01:36:54;;;;;;;;;;;2.20;99.90;;;;;;5114709;28;19919;-68
2021/04/06 01:39:30;;;;;;;;;;;2.20;99.90;;;;;;5086942;28;19924;-68
2021/04/06 01:42:02;;;;;;;;;;;2.30;99.90;;;;;;5096114;28;19950;-67
2021/04/06 01:47:39;;;;;;;;;;;2.50;99.90;;;;;;5085683;28;19928;-67
2021/04/06 01:57:10;;;;;;;;;;;2.50;99.90;;;;;;5102446;28;19915;-68
2021/04/06 01:59:48;;;;;;;;;;;2.50;99.90;;;;;;5098745;28;19920;-68
2021/04/06 02:09:33;;;;;;;;;;;2.50;99.90;;;;;;5113511;28;20443;-69
2021/04/06 02:12:03;;;;;;;;;;;2.50;99.90;;;;;;5114257;28;20390;-68
2021/04/06 02:17:57;;;;;;;;;;;2.50;99.90;;;;;;5107206;28;19937;-68
2021/04/06 02:27:02;;;;;;;;;;;2.50;99.90;;;;;;5129772;28;19919;-68
2021/04/06 02:29:30;;;;;;;;;;;2.60;99.90;;;;;;5131926;28;19992;-69
2021/04/06 02:32:07;;;;;;;;;;;2.60;99.90;;;;;;5134295;28;19919;-69
2021/04/06 02:34:34;;;;;;;;;;;2.50;99.90;;;;;;5109196;28;19919;-68
2021/04/06 02:37:01;;;;;;;;;;;2.50;99.90;;;;;;5127572;28;19983;-68
2021/04/06 02:39:37;;;;;;;;;;;2.50;99.90;;;;;;5135200;28;19919;-68
2021/04/06 02:42:16;;;;;;;;;;;2.50;99.90;;;;;;5130870;28;19942;-68
2021/04/06 02:44:44;;;;;;;;;;;2.50;99.90;;;;;;5133840;28;20069;-68
2021/04/06 02:47:12;;;;;;;;;;;2.50;99.90;;;;;;5113911;28;19927;-68
2021/04/06 02:49:57;;;;;;;;;;;2.50;99.90;;;;;;5116939;28;19965;-68
2021/04/06 02:52:42;;;;;;;;;;;2.40;99.90;;;;;;5134898;28;19929;-69
2021/04/06 02:55:14;;;;;;;;;;;2.40;99.90;;;;;;5099651;28;19926;-69
2021/04/06 02:57:50;;;;;;;;;;;2.40;99.90;;;;;;5120224;28;19923;-68
2021/04/06 03:07:01;;;;;;;;;;;2.40;99.90;;;;;;5109677;28;19919;-68
2021/04/06 03:09:31;;;;;;;;;;;2.30;99.90;;;;;;5109608;28;19941;-68
2021/04/06 03:12:05;;;;;;;;;;;2.30;99.90;;;;;;5135400;27;19916;-68
2021/04/06 03:14:35;;;;;;;;;;;2.30;99.90;;;;;;5122740;27;19920;-68
2021/04/06 03:17:02;;;;;;;;;;;2.30;99.90;;;;;;5097234;28;19916;-68
2021/04/06 03:19:32;;;;;;;;;;;2.30;99.90;;;;;;5112328;28;19919;-68
2021/04/06 03:22:07;;;;;;;;;;;2.30;99.90;;;;;;5117356;28;19968;-69
2021/04/06 03:24:36;;;;;;;;;;;2.30;99.90;;;;;;5128112;27;19926;-69
2021/04/06 03:27:08;;;;;;;;;;;2.30;99.90;;;;;;5124364;27;19919;-68
2021/04/06 03:29:37;;;;;;;;;;;2.30;99.90;;;;;;5137567;27;20049;-69
2021/04/06 03:32:03;;;;;;;;;;;2.30;99.90;;;;;;5121479;27;19927;-68
2021/04/06 03:34:37;;;;;;;;;;;2.30;99.90;;;;;;5107425;28;20349;-68
2021/04/06 03:37:10;;;;;;;;;;;2.20;99.90;;;;;;5097805;27;20252;-68
2021/04/06 03:39:42;;;;;;;;;;;2.30;99.90;;;;;;5137249;27;20397;-68
2021/04/06 03:42:24;;;;;;;;;;;2.30;99.90;;;;;;5128941;27;19919;-69
2021/04/06 03:45:12;;;;;;;;;;;2.20;99.90;;;;;;5137992;27;19923;-68
2021/04/06 03:57:48;;;;;;;;;;;2.20;99.90;;;;;;5118440;27;19927;-68
2021/04/06 04:03:39;;;;;;;;;;;2.20;99.90;;;;;;5129642;27;20320;-67
2021/04/06 04:09:32;;;;;;;;;;;2.20;99.90;;;;;;5137420;27;20271;-67
2021/04/06 04:12:04;;;;;;;;;;;2.20;99.90;;;;;;5133113;27;20022;-68
2021/04/06 04:14:32;;;;;;;;;;;2.20;99.90;;;;;;5121161;27;19927;-68
2021/04/06 04:17:04;;;;;;;;;;;2.20;99.90;;;;;;5136571;27;20009;-67
2021/04/06 04:19:47;;;;;;;;;;;2.20;99.90;;;;;;5120166;27;19923;-68
2021/04/06 04:22:31;;;;;;;;;;;2.20;99.90;;;;;;5123829;27;19989;-68
2021/04/06 04:25:05;;;;;;;;;;;2.20;99.90;;;;;;5128499;27;19919;-67
2021/04/06 04:34:32;;;;;;;;;;;2.20;99.90;;;;;;5133022;27;19914;-67
2021/04/06 04:37:02;;;;;;;;;;;2.20;99.90;;;;;;5135036;27;20362;-67
2021/04/06 04:39:33;;;;;;;;;;;2.30;99.90;;;;;;5136493;27;20013;-68
2021/04/06 04:52:09;;;;;;;;;;;2.10;99.90;;;;;;5095152;28;19922;-67
2021/04/06 04:54:35;;;;;;;;;;;2.00;99.90;;;;;;5130472;27;19919;-67
2021/04/06 04:57:07;;;;;;;;;;;2.00;99.90;;;;;;5120791;27;19975;-68
2021/04/06 04:59:34;;;;;;;;;;;1.90;99.90;;;;;;5110847;28;20014;-67
2021/04/06 05:02:31;;;;;;;;;;;1.90;99.90;;;;;;5108185;27;20379;-67
2021/04/06 05:04:59;;;;;;;;;;;1.80;99.90;;;;;;5135226;27;19987;-68
2021/04/06 05:07:29;;;;;;;;;;;1.80;99.90;;;;;;5127197;27;19948;-67
2021/04/06 05:09:59;;;;;;;;;;;1.80;99.90;;;;;;5116186;27;19998;-67
2021/04/06 05:12:33;;;;;;;;;;;1.90;99.90;;;;;;5095270;28;19977;-68
2021/04/06 05:15:01;;;;;;;;;;;1.90;99.90;;;;;;5122237;27;20278;-67
2021/04/06 05:17:34;;;;;;;;;;;2.00;99.90;;;;;;5131347;27;19988;-68
2021/04/06 05:20:00;;;;;;;;;;;1.90;99.90;;;;;;5115181;28;20394;-67
2021/04/06 05:22:32;;;;;;;;;;;1.90;99.90;;;;;;5135569;27;20304;-67
2021/04/06 05:25:17;;;;;;;;;;;2.00;99.90;;;;;;5124981;27;19945;-66
2021/04/06 05:27:48;;;;;;;;;;;2.00;99.90;;;;;;5101611;27;19919;-68
2021/04/06 05:30:39;;;;;;;;;;;2.00;99.90;;;;;;5135222;27;19965;-67
2021/04/06 05:33:10;;;;;;;;;;;2.00;99.90;;;;;;5083014;28;19920;-68
2021/04/06 05:35:48;;;;;;;;;;;1.90;99.90;;;;;;5114673;28;19926;-67
2021/04/06 05:38:16;;;;;;;;;;;2.00;99.90;;;;;;5106674;27;20021;-68
2021/04/06 05:40:44;;;;;;;;;;;2.00;99.90;;;;;;5128637;27;19927;-68
2021/04/06 05:43:13;;;;;;;;;;;2.00;99.90;;;;;;5121645;27;19969;-68
2021/04/06 05:52:32;;;;;;;;;;;2.10;99.90;;;;;;5118724;27;19972;-67
2021/04/06 05:55:01;;;;;;;;;;;2.10;99.90;;;;;;5094618;28;19920;-67
2021/04/06 05:57:28;;;;;;;;;;;2.20;99.90;;;;;;5114378;28;19920;-67
2021/04/06 06:00:00;;;;;;;;;;;2.20;99.90;;;;;;5114430;28;19985;-68
2021/04/06 06:02:38;;;;;;;;;;;2.20;99.90;;;;;;5129159;27;20349;-66
2021/04/06 06:05:05;;;;;;;;;;;2.20;99.90;;;;;;5114328;28;19920;-68
2021/04/06 06:07:33;;;;;;;;;;;2.10;99.90;;;;;;5114621;28;20333;-67
2021/04/06 06:10:21;;;;;;;;;;;2.10;99.90;;;;;;5093594;28;19959;-66
2021/04/06 06:12:53;;;;;;;;;;;2.10;99.90;;;;;;5089003;28;19920;-68
2021/04/06 06:15:44;;;;;;;;;;;2.00;99.90;;;;;;5074430;28;19928;-68
2021/04/06 06:18:10;;;;;;;;;;;2.00;99.90;;;;;;5075798;28;19924;-67
2021/04/06 06:20:51;;;;;;;;;;;2.00;99.90;;;;;;5073530;28;20014;-68
2021/04/06 06:23:23;;;;;;;;;;;2.00;99.90;;;;;;5079661;28;19920;-68
2021/04/06 06:32:36;;;;;;;;;;;2.10;99.90;;;;;;5073387;28;20009;-68
2021/04/06 06:35:32;;;;;;;;;;;2.10;99.90;;;;;;5068855;28;20283;-71
2021/04/06 06:44:57;;;;;;;;;;;2.40;99.90;;;;;;5096793;28;20020;-70
2021/04/06 06:47:33;;;;;;;;;;;2.30;99.90;;;;;;5081345;28;19927;-69
2021/04/06 06:53:35;;;;;;;;;;;2.50;99.90;;;;;;5058930;28;19920;-69
2021/04/06 07:02:53;;;;;;;;;;;2.20;99.90;;;;;;5097225;28;19999;-69
2021/04/06 07:05:36;;;;;;;;;;;1.90;99.90;;;;;;5073071;28;19927;-69
2021/04/06 07:08:05;;;;;;;;;;;1.90;99.90;;;;;;5067242;27;20424;-71
2021/04/06 07:17:55;;;;;;;;;;;1.70;99.90;;;;;;5116611;27;19999;-69
2021/04/06 07:20:47;;;;;;;;;;;1.70;99.90;;;;;;5099803;28;20371;-70
2021/04/06 07:23:22;;;;;;;;;;;1.80;99.90;;;;;;5122304;27;19979;-71
2021/04/06 07:32:41;;;;;;;;;;;2.00;99.90;;;;;;5117799;27;19953;-71
2021/04/06 07:45:45;;;;;;;;;;;2.50;99.90;;;;;;5137678;27;19960;-72
2021/04/06 07:57:41;;;;;;;;;;;2.90;99.90;;;;;;5095984;28;19927;-69
2021/04/06 08:00:26;;;;;;;;;;;2.70;99.90;;;;;;5083398;28;20267;-70
2021/04/06 08:03:20;;;;;;;;;;;2.80;99.90;;;;;;5117154;28;19927;-67
2021/04/06 08:06:04;;;;;;;;;;;2.80;99.90;;;;;;5100843;27;20267;-68
2021/04/06 08:08:33;;;;;;;;;;;2.80;99.90;;;;;;5135753;27;20010;-68
2021/04/06 08:15:10;;;;;;;;;;;2.80;99.90;;;;;;5136926;27;19914;-70
2021/04/06 08:17:56;;;;;;;;;;;2.80;99.90;;;;;;5129183;27;19916;-70
2021/04/06 08:27:42;;;;;;;;;;;3.10;99.90;;;;;;5134521;27;20271;-66
2021/04/06 08:34:00;;;;;;;;;;;2.90;99.90;;;;;;5102284;28;19958;-66
2021/04/06 08:40:16;;;;;;;;;;;2.80;99.90;;;;;;5098463;28;19915;-71
2021/04/06 08:42:48;;;;;;;;;;;2.80;99.90;;;;;;5130907;27;19919;-69
2021/04/06 08:45:24;;;;;;;;;;;2.80;99.90;;;;;;5060857;28;20272;-68
2021/04/06 08:48:10;;;;;;;;;;;2.90;99.90;;;;;;5126088;27;19930;-68
2021/04/06 08:50:48;;;;;;;;;;;2.90;99.90;;;;;;5133887;27;19924;-67
2021/04/06 08:53:18;;;;;;;;;;;3.00;99.90;;;;;;5132594;27;19919;-68
2021/04/06 09:02:44;;;;;;;;;;;3.30;99.90;;;;;;5109964;28;19969;-65
2021/04/06 09:05:27;;;;;;;;;;;3.30;99.90;;;;;;5094789;28;19959;-66
2021/04/06 09:08:17;;;;;;;;;;;3.40;99.90;;;;;;5127797;27;19919;-68
2021/04/06 09:11:08;;;;;;;;;;;3.60;99.90;;;;;;5117836;27;20004;-68
2021/04/06 09:17:08;;;;;;;;;;;4.00;99.90;;;;;;5125392;27;20368;-69
2021/04/06 09:23:24;;;;;;;;;;;4.30;99.90;;;;;;5132680;27;19922;-68
2021/04/06 09:25:59;;;;;;;;;;;4.20;99.90;;;;;;5133420;27;20321;-69
2021/04/06 09:37:53;;;;;;;;;;;4.10;99.90;;;;;;5135560;27;20324;-69
2021/04/06 09:40:37;;;;;;;;;;;4.10;99.90;;;;;;5108884;28;19920;-69
2021/04/06 09:43:15;;;;;;;;;;;4.10;99.90;;;;;;5114552;28;19919;-69
2021/04/06 09:45:42;;;;;;;;;;;4.20;99.90;;;;;;5116421;27;19923;-69
2021/04/06 09:48:23;;;;;;;;;;;4.30;99.90;;;;;;5097478;27;20287;-69
2021/04/06 09:51:08;;;;;;;;;;;4.30;99.90;;;;;;5115934;27;20014;-69
2021/04/06 09:53:59;;;;;;;;;;;4.30;99.90;;;;;;5119719;27;19923;-69
2021/04/06 10:00:28;;;;;;;;;;;4.40;99.90;;;;;;5129295;27;20003;-69
2021/04/06 10:03:28;;;;;;;;;;;4.50;99.90;;;;;;5133699;27;19920;-69
2021/04/06 10:06:19;;;;;;;;;;;4.40;99.90;;;;;;5082784;27;19919;-69
2021/04/06 10:16:17;;;;;;;;;;;3.80;99.90;;;;;;5126561;27;20412;-66
2021/04/06 10:18:49;;;;;;;;;;;3.90;99.90;;;;;;5113761;28;19915;-65
2021/04/06 10:21:21;;;;;;;;;;;4.00;99.90;;;;;;5100043;28;19943;-65
2021/04/06 10:23:49;;;;;;;;;;;4.30;99.90;;;;;;5116875;28;19920;-66
2021/04/06 10:26:21;;;;;;;;;;;4.60;99.90;;;;;;5101409;28;19925;-65
2021/04/06 10:35:38;;;;;;;;;;;5.20;99.90;;;;;;5107890;28;19919;-65
2021/04/06 10:38:14;;;;;;;;;;;5.30;99.90;;;;;;5093625;28;20360;-64
2021/04/06 10:40:42;;;;;;;;;;;5.20;99.90;;;;;;5094433;28;19931;-65
2021/04/06 10:43:12;;;;;;;;;;;5.00;99.90;;;;;;5135029;28;19920;-68
2021/04/06 10:45:48;;;;;;;;;;;4.80;99.90;;;;;;5128798;28;19919;-67
2021/04/06 10:48:42;;;;;;;;;;;4.70;99.90;;;;;;5134643;28;19923;-67
2021/04/06 10:54:33;;;;;;;;;;;4.70;99.90;;;;;;5129005;28;19918;-65
2021/04/06 11:00:30;;;;;;;;;;;4.90;99.90;;;;;;5117374;28;19961;-64
2021/04/06 11:06:56;;;;;;;;;;;5.10;99.90;;;;;;5104257;28;19914;-64
2021/04/06 11:13:12;;;;;;;;;;;5.20;99.90;;;;;;5119117;27;19922;-65
2021/04/06 11:15:38;;;;;;;;;;;5.20;99.90;;;;;;5124409;28;19922;-64
2021/04/06 11:18:06;;;;;;;;;;;5.20;99.90;;;;;;5134197;28;20381;-64
2021/04/06 11:20:41;;;;;;;;;;;5.20;99.90;;;;;;5134656;28;19969;-65
2021/04/06 11:23:12;;;;;;;;;;;5.40;99.90;;;;;;5133820;28;19919;-65
2021/04/06 11:25:41;;;;;;;;;;;5.40;99.90;;;;;;5129126;28;19925;-64
2021/04/06 11:28:16;;;;;;;;;;;5.50;99.90;;;;;;5135122;27;19923;-65
2021/04/06 11:31:10;;;;;;;;;;;5.50;99.90;;;;;;5133300;27;19923;-65
2021/04/06 11:33:40;;;;;;;;;;;5.60;99.90;;;;;;5138217;27;19920;-66
2021/04/06 11:43:08;;;;;;;;;;;6.00;99.90;;;;;;5126278;27;19922;-64
2021/04/06 11:45:43;;;;;;;;;;;5.90;99.90;;;;;;5117027;27;19920;-65
2021/04/06 11:48:13;;;;;;;;;;;5.90;99.90;;;;;;5111750;27;19920;-65
2021/04/06 11:50:45;;;;;;;;;;;5.90;99.90;;;;;;5116921;28;20378;-65
2021/04/06 11:53:14;;;;;;;;;;;5.90;99.90;;;;;;5097152;28;19920;-65
2021/04/06 11:55:41;;;;;;;;;;;5.80;99.90;;;;;;5098954;27;19969;-64
2021/04/06 11:58:10;;;;;;;;;;;5.70;99.90;;;;;;5137181;27;19919;-65
2021/04/06 12:00:38;;;;;;;;;;;5.70;99.90;;;;;;5137353;27;19919;-65
2021/04/06 12:03:09;;;;;;;;;;;5.50;99.90;;;;;;5096505;28;19962;-65
2021/04/06 12:05:43;;;;;;;;;;;5.30;99.90;;;;;;5112443;28;19919;-66
2021/04/06 12:11:23;;;;;;;;;;;4.80;99.90;;;;;;5118936;27;20014;-64
2021/04/06 12:13:52;;;;;;;;;;;4.50;99.90;;;;;;5136828;27;20436;-64
2021/04/06 12:16:21;;;;;;;;;;;4.40;99.90;;;;;;5097158;27;19982;-64
2021/04/06 12:18:52;;;;;;;;;;;4.50;99.90;;;;;;5136687;27;19919;-64
2021/04/06 12:21:48;;;;;;;;;;;4.60;99.90;;;;;;5116502;28;19927;-64
2021/04/06 12:24:32;;;;;;;;;;;4.70;99.90;;;;;;5112131;27;19919;-64
2021/04/06 12:26:59;;;;;;;;;;;4.70;99.90;;;;;;5129629;27;19920;-65
2021/04/06 12:32:49;;;;;;;;;;;4.60;99.90;;;;;;5134072;27;19930;-65
2021/04/06 12:38:48;;;;;;;;;;;4.60;99.90;;;;;;5131126;27;20270;-66
2021/04/06 12:41:22;;;;;;;;;;;4.70;99.90;;;;;;5108438;28;19926;-66
2021/04/06 12:43:49;;;;;;;;;;;4.90;99.90;;;;;;5120722;27;20030;-65
2021/04/06 12:46:18;;;;;;;;;;;5.10;99.90;;;;;;5116422;27;19920;-65
2021/04/06 12:48:57;;;;;;;;;;;5.20;99.90;;;;;;5133810;27;19919;-64
2021/04/06 12:51:29;;;;;;;;;;;5.20;99.90;;;;;;5109803;28;19920;-64
2021/04/06 12:53:57;;;;;;;;;;;5.20;99.90;;;;;;5126686;27;19927;-66
2021/04/06 12:56:26;;;;;;;;;;;5.30;99.90;;;;;;5097581;28;19926;-65
2021/04/06 12:58:53;;;;;;;;;;;5.40;99.90;;;;;;5117187;27;20288;-65
2021/04/06 13:01:27;;;;;;;;;;;5.40;99.90;;;;;;5117867;27;20022;-63
2021/04/06 13:04:01;;;;;;;;;;;5.50;99.90;;;;;;5132965;27;19925;-65
2021/04/06 13:16:45;;;;;;;;;;;5.50;99.90;;;;;;5126542;27;19914;-64
2021/04/06 13:19:31;;;;;;;;;;;5.50;99.90;;;;;;5115104;28;19940;-65
2021/04/06 13:22:21;;;;;;;;;;;5.50;99.90;;;;;;5125804;27;19927;-66
2021/04/06 13:31:36;;;;;;;;;;;6.00;99.90;;;;;;5115023;28;19919;-66
2021/04/06 13:34:34;;;;;;;;;;;5.70;99.90;;;;;;5095019;28;19927;-67
2021/04/06 13:37:15;;;;;;;;;;;5.40;99.90;;;;;;5099777;27;20343;-67
2021/04/06 13:46:37;;;;;;;;;;;5.10;99.90;;;;;;5130046;27;20041;-67
2021/04/06 13:49:06;;;;;;;;;;;5.00;99.90;;;;;;5094914;28;20007;-67
2021/04/06 13:52:03;;;;;;;;;;;5.00;99.90;;;;;;5134884;27;19938;-68
2021/04/06 13:57:58;;;;;;;;;;;5.00;99.90;;;;;;5117024;27;19913;-67
2021/04/06 14:00:30;;;;;;;;;;;5.20;99.90;;;;;;5133046;27;20002;-66
2021/04/06 14:03:06;;;;;;;;;;;5.30;99.90;;;;;;5128517;27;20290;-66
2021/04/06 14:05:49;;;;;;;;;;;5.20;99.90;;;;;;5090617;28;19919;-67
2021/04/06 14:08:47;;;;;;;;;;;4.70;99.90;;;;;;5115410;28;19923;-66
2021/04/06 14:15:03;;;;;;;;;;;4.40;99.90;;;;;;5115250;27;19922;-68
2021/04/06 14:17:31;;;;;;;;;;;4.40;99.90;;;;;;5093226;28;19965;-68
2021/04/06 14:20:26;;;;;;;;;;;4.50;99.90;;;;;;5114324;28;19919;-67
2021/04/06 14:22:54;;;;;;;;;;;4.50;99.90;;;;;;5100105;28;20014;-65
2021/04/06 14:25:35;;;;;;;;;;;4.60;99.90;;;;;;5134914;28;19919;-66
2021/04/06 14:28:03;;;;;;;;;;;4.70;99.90;;;;;;5080950;28;19923;-67
2021/04/06 14:30:36;;;;;;;;;;;4.90;99.90;;;;;;5125297;28;19919;-67
2021/04/06 14:33:03;;;;;;;;;;;4.70;99.90;;;;;;5129988;28;19926;-67
2021/04/06 14:35:35;;;;;;;;;;;4.70;99.90;;;;;;5130441;28;20370;-68
2021/04/06 14:44:56;;;;;;;;;;;4.40;99.90;;;;;;5129341;28;20427;-66
2021/04/06 14:47:34;;;;;;;;;;;4.40;99.90;;;;;;5134619;28;19968;-65
2021/04/06 14:50:29;;;;;;;;;;;4.50;99.90;;;;;;5125995;28;20286;-66
2021/04/06 14:53:07;;;;;;;;;;;4.70;99.90;;;;;;5080184;28;19996;-65
2021/04/06 15:02:28;;;;;;;;;;;5.10;99.90;;;;;;5134132;27;20381;-65
2021/04/06 15:04:55;;;;;;;;;;;5.20;99.90;;;;;;5122440;27;20267;-65
2021/04/06 15:07:35;;;;;;;;;;;5.30;99.90;;;;;;5097581;28;20283;-65
2021/04/06 15:10:24;;;;;;;;;;;5.30;99.90;;;;;;5111068;27;20438;-66
2021/04/06 15:12:51;;;;;;;;;;;5.30;99.90;;;;;;5119341;27;19926;-66
2021/04/06 15:18:47;;;;;;;;;;;5.30;99.90;;;;;;5115425;27;20002;-65
2021/04/06 15:24:57;;;;;;;;;;;4.80;99.90;;;;;;5117178;28;20019;-67
2021/04/06 15:27:30;;;;;;;;;;;3.60;99.90;;;;;;5116120;27;20397;-65
2021/04/06 15:30:29;;;;;;;;;;;3.00;99.90;;;;;;5135101;27;20002;-67
2021/04/06 15:33:03;;;;;;;;;;;2.50;99.90;;;;;;5121227;27;19919;-65
2021/04/06 15:42:31;;;;;;;;;;;1.80;99.90;;;;;;5131709;27;20373;-65
2021/04/06 15:45:10;;;;;;;;;;;1.90;99.90;;;;;;5134358;27;20009;-66
2021/04/06 15:47:42;;;;;;;;;;;2.00;99.90;;;;;;5126278;27;19919;-66
2021/04/06 15:53:32;;;;;;;;;;;2.30;99.90;;;;;;5119216;27;19915;-66
2021/04/06 15:56:35;;;;;;;;;;;2.50;99.90;;;;;;5136630;27;19938;-66
2021/04/06 15:59:01;;;;;;;;;;;2.80;99.90;;;;;;5117424;27;19924;-66
2021/04/06 16:05:01;;;;;;;;;;;3.10;99.90;;;;;;5118827;27;20442;-65
2021/04/06 16:14:07;;;;;;;;;;;3.20;99.90;;;;;;5095272;28;19920;-68
2021/04/06 16:16:34;;;;;;;;;;;3.20;99.90;;;;;;5125319;27;19929;-64
2021/04/06 16:19:02;;;;;;;;;;;3.30;99.90;;;;;;5121994;27;19928;-64
2021/04/06 16:21:32;;;;;;;;;;;3.30;99.90;;;;;;5131125;27;20441;-66
2021/04/06 16:24:03;;;;;;;;;;;3.20;99.90;;;;;;5127376;27;20006;-66
2021/04/06 16:26:40;;;;;;;;;;;3.20;99.90;;;;;;5095787;28;20014;-68
2021/04/06 16:29:07;;;;;;;;;;;3.20;99.90;;;;;;5096248;28;19923;-65
2021/04/06 16:31:35;;;;;;;;;;;2.90;99.90;;;;;;5116389;28;19927;-64
2021/04/06 16:40:46;;;;;;;;;;;2.20;99.90;;;;;;5126092;27;19914;-65
2021/04/06 16:43:43;;;;;;;;;;;2.20;99.90;;;;;;5127516;27;20015;-66
2021/04/06 16:46:10;;;;;;;;;;;2.20;99.90;;;;;;5119765;27;19921;-68
2021/04/06 16:48:46;;;;;;;;;;;2.20;99.90;;;;;;5095504;28;19920;-69
2021/04/06 16:51:13;;;;;;;;;;;2.30;99.90;;;;;;5095648;28;19920;-69
2021/04/06 16:53:46;;;;;;;;;;;2.30;99.90;;;;;;5117761;27;19922;-66
2021/04/06 16:56:18;;;;;;;;;;;2.10;99.90;;;;;;5115761;28;20389;-68
2021/04/06 16:58:49;;;;;;;;;;;1.90;99.90;;;;;;5126241;27;19915;-67
2021/04/06 17:01:15;;;;;;;;;;;1.80;99.90;;;;;;5135991;27;19968;-66
2021/04/06 17:03:51;;;;;;;;;;;1.70;99.90;;;;;;5135946;27;19927;-67
2021/04/06 17:06:49;;;;;;;;;;;1.60;99.90;;;;;;5130080;27;19919;-66
2021/04/06 17:23:52;;;;;;;;;;;1.40;99.90;;;;;;5123645;27;20027;-67
2021/04/06 17:26:21;;;;;;;;;;;1.40;99.90;;;;;;5095234;28;19920;-68
2021/04/06 17:29:18;;;;;;;;;;;1.40;99.90;;;;;;5131093;27;20362;-68
2021/04/06 17:32:13;;;;;;;;;;;1.50;99.90;;;;;;5108145;27;19920;-64
2021/04/06 17:34:42;;;;;;;;;;;1.60;99.90;;;;;;5126721;27;19919;-65
2021/04/06 17:37:13;;;;;;;;;;;1.70;99.90;;;;;;5094466;28;19920;-65
2021/04/06 17:39:45;;;;;;;;;;;1.80;99.90;;;;;;5106664;27;19920;-65
2021/04/06 17:42:12;;;;;;;;;;;1.90;99.90;;;;;;5114812;28;19920;-66
2021/04/06 17:44:42;;;;;;;;;;;2.00;99.90;;;;;;5129693;27;19972;-65
2021/04/06 17:47:14;;;;;;;;;;;2.00;99.90;;;;;;5124739;27;20014;-64
2021/04/06 17:49:48;;;;;;;;;;;2.00;99.90;;;;;;5115070;28;19943;-63
2021/04/06 17:52:21;;;;;;;;;;;2.00;99.90;;;;;;5114785;28;19962;-63
2021/04/06 17:54:55;;;;;;;;;;;2.10;99.90;;;;;;5134597;27;19942;-63
2021/04/06 17:57:33;;;;;;;;;;;2.10;99.90;;;;;;5135512;27;19976;-62
2021/04/06 18:09:43;;;;;;;;;;;2.10;99.90;;;;;;5131440;27;19920;-66
2021/04/06 18:12:15;;;;;;;;;;;2.10;99.90;;;;;;5135294;27;19915;-64
2021/04/06 18:14:41;;;;;;;;;;;2.20;99.90;;;;;;5110943;27;20388;-64
2021/04/06 18:17:15;;;;;;;;;;;2.20;99.90;;;;;;5126433;27;19926;-63
2021/04/06 18:19:44;;;;;;;;;;;2.10;99.90;;;;;;5115803;28;19931;-65
2021/04/06 18:22:16;;;;;;;;;;;2.20;99.90;;;;;;5116709;28;19919;-62
2021/04/06 18:24:47;;;;;;;;;;;2.20;99.90;;;;;;5119996;28;19923;-64
2021/04/06 18:27:15;;;;;;;;;;;2.20;99.90;;;;;;5114619;28;19942;-64
2021/04/06 18:30:12;;;;;;;;;;;2.20;99.90;;;;;;5128424;28;19951;-65
2021/04/06 18:32:50;;;;;;;;;;;2.20;99.90;;;;;;5130501;28;20018;-65
2021/04/06 18:35:18;;;;;;;;;;;2.30;99.90;;;;;;5112735;28;19963;-64
2021/04/06 18:37:58;;;;;;;;;;;2.30;99.90;;;;;;5118608;27;20366;-63
2021/04/06 18:40:42;;;;;;;;;;;2.30;99.90;;;;;;5120523;27;19923;-63
2021/04/06 18:43:14;;;;;;;;;;;2.30;99.90;;;;;;5104957;28;19920;-65
2021/04/06 18:52:26;;;;;;;;;;;2.30;99.90;;;;;;5103340;27;19973;-64
2021/04/06 18:54:58;;;;;;;;;;;2.30;99.90;;;;;;5138631;27;19919;-62
2021/04/06 19:00:41;;;;;;;;;;;2.40;99.90;;;;;;5119447;27;19919;-66
2021/04/06 19:09:52;;;;;;;;;;;2.40;99.90;;;;;;5137504;27;19930;-65
2021/04/06 19:12:24;;;;;;;;;;;2.10;99.90;;;;;;5122989;27;19919;-63
2021/04/06 19:14:57;;;;;;;;;;;1.90;99.90;;;;;;5136447;27;20310;-64
2021/04/06 19:17:25;;;;;;;;;;;1.70;99.90;;;;;;5111860;28;19960;-64
2021/04/06 19:19:52;;;;;;;;;;;1.60;99.90;;;;;;5121365;27;19920;-66
2021/04/06 19:22:27;;;;;;;;;;;1.50;99.90;;;;;;5101440;27;19920;-64
2021/04/06 19:25:06;;;;;;;;;;;1.50;99.90;;;;;;5098542;27;20016;-65
2021/04/06 19:27:36;;;;;;;;;;;1.50;99.90;;;;;;5137807;27;19919;-64
2021/04/06 19:30:03;;;;;;;;;;;1.50;99.90;;;;;;5098062;28;19920;-64
2021/04/06 19:32:34;;;;;;;;;;;1.50;99.90;;;;;;5117252;28;19927;-63
2021/04/06 19:35:03;;;;;;;;;;;1.50;99.90;;;;;;5128191;27;20267;-64
2021/04/06 19:37:31;;;;;;;;;;;1.50;99.90;;;;;;5131308;27;19925;-64
2021/04/06 19:40:04;;;;;;;;;;;1.50;99.90;;;;;;5135019;27;19919;-64
2021/04/06 19:42:33;;;;;;;;;;;1.50;99.90;;;;;;5132423;27;20672;-64
2021/04/06 19:45:07;;;;;;;;;;;1.60;99.90;;;;;;5118218;27;20030;-64
2021/04/06 19:47:34;;;;;;;;;;;1.60;99.90;;;;;;5107032;27;20345;-64
2021/04/06 19:50:03;;;;;;;;;;;1.60;99.90;;;;;;5116601;27;19958;-64
2021/04/06 19:52:52;;;;;;;;;;;1.60;99.90;;;;;;5132821;27;19965;-65
2021/04/06 19:55:33;;;;;;;;;;;1.60;99.90;;;;;;5120609;27;19923;-64
2021/04/06 20:01:36;;;;;;;;;;;1.70;99.90;;;;;;5136948;27;20381;-66
2021/04/06 20:07:23;;;;;;;;;;;1.80;99.90;;;;;;5121688;27;20018;-66
2021/04/06 20:09:58;;;;;;;;;;;1.80;99.90;;;;;;5121083;27;20382;-66
2021/04/06 20:12:29;;;;;;;;;;;1.80;99.90;;;;;;5098675;28;19920;-66
2021/04/06 20:15:02;;;;;;;;;;;1.80;99.90;;;;;;5132464;27;19926;-65
2021/04/06 20:18:07;;;;;;;;;;;1.80;99.90;;;;;;5088686;28;19942;-66
2021/04/06 20:27:24;;;;;;;;;;;1.70;99.90;;;;;;5096423;28;19984;-66
2021/04/06 20:29:53;;;;;;;;;;;1.60;99.90;;;;;;5087109;28;19955;-66
2021/04/06 20:32:25;;;;;;;;;;;1.70;99.90;;;;;;5085867;28;19920;-66
2021/04/06 20:34:57;;;;;;;;;;;1.70;99.90;;;;;;5075719;28;20355;-66
2021/04/06 20:37:24;;;;;;;;;;;1.80;99.90;;;;;;5085230;28;19927;-66
2021/04/06 20:39:52;;;;;;;;;;;1.80;99.90;;;;;;5079785;28;20261;-66
2021/04/06 20:42:24;;;;;;;;;;;1.70;99.90;;;;;;5082797;28;19920;-66
2021/04/06 20:44:54;;;;;;;;;;;1.70;99.90;;;;;;5079027;28;19932;-66
2021/04/06 20:47:28;;;;;;;;;;;1.70;99.90;;;;;;5069324;28;20398;-66
2021/04/06 20:49:56;;;;;;;;;;;1.70;99.90;;;;;;5075295;28;19927;-66
2021/04/06 20:52:24;;;;;;;;;;;1.70;99.90;;;;;;5065160;28;19921;-65
2021/04/06 20:54:56;;;;;;;;;;;1.70;99.90;;;;;;5073936;28;20019;-66
2021/04/06 20:57:24;;;;;;;;;;;1.80;99.90;;;;;;5090164;28;19942;-66
2021/04/06 20:59:56;;;;;;;;;;;1.70;99.90;;;;;;5080507;28;19993;-66
2021/04/06 21:02:30;;;;;;;;;;;1.70;99.90;;;;;;5073305;28;19920;-67
2021/04/06 21:04:57;;;;;;;;;;;1.70;99.90;;;;;;5084762;28;20367;-66
2021/04/06 21:07:25;;;;;;;;;;;1.80;99.90;;;;;;5084355;28;20379;-66
2021/04/06 21:09:59;;;;;;;;;;;1.80;99.90;;;;;;5074841;28;19921;-66
2021/04/06 21:12:31;;;;;;;;;;;1.80;99.90;;;;;;5068672;28;19927;-67
2021/04/06 21:15:15;;;;;;;;;;;1.80;99.90;;;;;;5085929;28;19966;-67
2021/04/06 21:38:23;;;;;;;;;;;2.00;99.90;;;;;;5101358;27;19952;-66
2021/04/06 21:47:58;;;;;;;;;;;2.00;99.90;;;;;;5134307;27;19942;-66
2021/04/06 21:50:49;;;;;;;;;;;2.00;99.90;;;;;;5122300;27;19926;-66
2021/04/06 21:57:24;;;;;;;;;;;2.00;99.90;;;;;;5133239;27;20269;-66
2021/04/06 22:00:02;;;;;;;;;;;2.00;99.90;;;;;;5118697;27;19920;-66
2021/04/06 22:02:33;;;;;;;;;;;2.00;99.90;;;;;;5094666;27;19938;-66
2021/04/06 22:18:24;;;;;;;;;;;1.90;99.90;;;;;;5118110;27;19945;-65
2021/04/06 22:37:44;;;;;;;;;;;1.60;99.90;;;;;;5038993;28;19952;-66
2021/04/06 22:40:21;;;;;;;;;;;1.70;99.90;;;;;;5111849;28;19919;-65
2021/04/06 22:43:00;;;;;;;;;;;1.60;99.90;;;;;;5129538;28;20450;-65